Wolf Point

Airport
ICAO code: 
KOLF
Summary
ICAO Region: 
NAM
Territory: 
Location: 
Wolf Point, Roosevelt, Montana,
Coordinates: 
Aerial View: 
48° 5' 40.205" N, 105° 34' 29.989" W
Metar
Observation
KOLF 260353Z AUTO 00000KT 10SM CLR M14/M17 A2992 RMK AO2 SLP187 T11391167
Station
Wolf Point, Clayton Airport
Date/Time
2022-01-26 03:53:00
Wind direction
Wind speed
00 kts
Lowest cloud amount
n/a
Temperature
-13.9°C
Dew point
-16.7°C
Humidity
79%
Weather condition
n/a

Description

L. M. Clayton Airport is a public airport located 5 km east of the central business district (CBD) of Wolf Point, a city in Roosevelt County, Montana, USA.

Climatology

Wolf Point experiences a semi-arid steppe climate (Köppen climate classification BSk), with generally cold, dry winters and hot summers. Late spring and early summer is on average the wettest period of the year. During the summer warm, humid air masses more typical of a warm summer continental climate (Köppen climate classification Dfb) may move into the area from the south or east. Summertime thunderstorms commonly occur and sometimes can be severe featuring hail and, infrequently, funnel clouds or tornados.

Runways

Designator Length Width Surface Rops
11/29 1551 30 ASP No/No
Airport map: 
Aerial View: 

Accidents and Serious Incidents at or in the vicinity of KOLF

SKYbrary Partners:

Safety knowledge contributed by: